Flight Track Log - Related Links

Times and Time Zones

All times are in EDT time to prevent confusion due to time zone crossing. See the N682RW flight status page for this flight to view local times or setup timezone preferences in your user account.

Time Position Orientation Groundspeed Altitude Reporting Facility
EDT Latitude Longitude Course Direction KTS MPH feet Rate Location/Type
Wed 07:24:54 PM 39.1000 -94.6000 252° West 164 189 1,600  Level Kansas City TRACON
Wed 07:25:54 PM 39.0833 -94.6667 252° West 232 267 3,300 1,800 Climbing Kansas City TRACON
Wed 07:26:14 PM 39.0725 -94.6908 240° Southwest 237 273 4,000 2,500 Climbing Kansas City Center
Wed 07:27:18 PM 39.1022 -94.7625 298° West 270 311 6,800 2,952 Climbing Kansas City Center
Wed 07:28:18 PM 39.1836 -94.7831 349° North 272 313 10,100 2,488 Climbing Kansas City Center
Wed 07:29:21 PM 39.2597 -94.7986 351° North 288 331 11,900 1,790 Climbing Kansas City Center
Wed 07:30:22 PM 39.3669 -94.8167 353° North 349 402 13,800 2,160 Climbing Kansas City Center
Wed 07:31:26 PM 39.4633 -94.8353 352° North 366 421 16,400 2,758 Climbing Kansas City Center
Wed 07:32:26 PM 39.5386 -94.9356 314° West 356 410 19,500 2,419 Climbing Kansas City Center
Wed 07:33:30 PM 39.5917 -95.0369 304° West 357 411 21,400 1,824 Climbing Kansas City Center
Wed 07:34:31 PM 39.6569 -95.1617 304° West 377 434 23,300 1,770 Climbing Kansas City Center
Wed 07:35:32 PM 39.7144 -95.2703 305° West 382 440 25,000 1,728 Climbing Kansas City Center
Wed 07:36:36 PM 39.7822 -95.3997 304° West 387 445 26,900 1,597 Climbing Kansas City Center
Wed 07:37:36 PM 39.8428 -95.5139 305° West 401 461 28,300 1,475 Climbing Kansas City Center
Wed 07:38:38 PM 39.9122 -95.6492 304° West 404 465 29,900 1,392 Climbing Kansas City Center
Wed 07:39:41 PM 39.9728 -95.7644 304° West 403 464 31,200 1,344 Climbing Kansas City Center
Wed 07:40:43 PM 40.0319 -95.8794 304° West 401 461 32,700 1,344 Climbing Kansas City Center
Wed 07:41:46 PM 40.0994 -96.0103 304° West 392 451 34,000 684 Climbing Kansas City Center
Wed 07:42:37 PM 40.1494 -96.1089 304° West 386 444 34,000 214 Level Minneapolis Center
Wed 07:43:38 PM 40.2169 -96.2194 309° West 395 455 34,400 488 Climbing Minneapolis Center
Wed 07:44:40 PM 40.3106 -96.2889 331° Northwest 390 449 35,000 290 Climbing Minneapolis Center
Wed 07:45:42 PM 40.4056 -96.3575 331° Northwest 390 449 35,000  Level Minneapolis Center
Wed 07:46:44 PM 40.5197 -96.4419 331° Northwest 390 449 35,000  Level Minneapolis Center
Wed 07:47:46 PM 40.6144 -96.5128 330° Northwest 390 449 35,000  Level Minneapolis Center
Wed 07:48:47 PM 40.7086 -96.5817 331° Northwest 389 448 35,000  Level Minneapolis Center
Wed 07:49:49 PM 40.8028 -96.6528 330° Northwest 388 447 35,000  Level Minneapolis Center
Wed 07:50:51 PM 40.8972 -96.7228 331° Northwest 387 445 35,000  Level Minneapolis Center
Wed 07:51:53 PM 41.0083 -96.7439 352° North 411 473 35,000  Level Minneapolis Center
Wed 07:52:55 PM 41.1242 -96.7456 359° North 414 476 35,000  Level Minneapolis Center
Wed 07:53:56 PM 41.2333 -96.7767 348° North 401 461 35,000  Level Minneapolis Center
Wed 07:54:58 PM 41.3425 -96.8103 347° North 399 459 35,000  Level Minneapolis Center
Wed 07:56:00 PM 41.4761 -96.8533 346° North 405 466 35,000  Level Minneapolis Center
Wed 07:57:01 PM 41.5883 -96.8892 347° North 410 472 35,000  Level Minneapolis Center
Wed 07:58:03 PM 41.7003 -96.9233 347° North 410 472 35,000  Level Minneapolis Center
Wed 07:59:05 PM 41.8097 -96.9569 347° North 406 467 35,000  Level Minneapolis Center
Wed 08:00:07 PM 41.9222 -96.9642 357° North 407 468 35,000  Level Minneapolis Center
Wed 08:01:08 PM 42.0389 -96.9536 North 415 478 35,000  Level Minneapolis Center
Wed 08:02:10 PM 42.1556 -96.9394 North 418 481 35,000  Level Minneapolis Center
Wed 08:03:12 PM 42.2722 -96.9269 North 419 482 35,000  Level Minneapolis Center
Wed 08:04:14 PM 42.4147 -96.9131 North 425 489 35,000  Level Minneapolis Center
Wed 08:05:15 PM 42.5306 -96.9011 North 422 486 35,000  Level Minneapolis Center
Wed 08:06:17 PM 42.6458 -96.8894 North 418 481 35,000  Level Minneapolis Center
Wed 08:07:19 PM 42.7611 -96.8758 North 417 480 35,000  Level Minneapolis Center
Wed 08:08:20 PM 42.8767 -96.8653 North 417 480 35,000  Level Minneapolis Center
Wed 08:09:22 PM 42.9933 -96.8522 North 421 484 35,000  Level Minneapolis Center
Wed 08:10:24 PM 43.1081 -96.8392 North 415 478 35,000  Level Minneapolis Center
Wed 08:11:25 PM 43.2497 -96.8239 North 423 487 35,000  Level Minneapolis Center
Wed 08:12:27 PM 43.3672 -96.8089 North 424 488 35,000  Level Minneapolis Center
Wed 08:13:29 PM 43.4747 -96.7236 30° Northeast 445 512 35,000  Level Minneapolis Center
Wed 08:14:30 PM 43.5611 -96.5856 49° Northeast 473 544 35,000  Level Minneapolis Center
Wed 08:15:32 PM 43.6472 -96.4497 49° Northeast 472 543 35,000  Level Minneapolis Center
Wed 08:16:34 PM 43.7322 -96.3136 49° Northeast 471 542 35,000  Level Minneapolis Center
Wed 08:17:35 PM 43.8169 -96.1797 49° Northeast 468 539 35,000 -488 Level Minneapolis Center
Wed 08:18:37 PM 43.9186 -96.0175 49° Northeast 471 542 34,000 -1,306 Descending Minneapolis Center
Wed 08:19:39 PM 44.0031 -95.8839 49° Northeast 469 540 32,300 -1,854 Descending Minneapolis Center
Wed 08:20:40 PM 44.0886 -95.7475 49° Northeast 474 545 30,200 -2,000 Descending Minneapolis Center
Wed 08:21:42 PM 44.1725 -95.6114 49° Northeast 470 541 28,200 -1,984 Descending Minneapolis Center
Wed 08:22:44 PM 44.2547 -95.4775 49° Northeast 462 532 26,100 -2,195 Descending Minneapolis Center
Wed 08:23:45 PM 44.3486 -95.3244 49° Northeast 440 506 23,700 -2,146 Descending Minneapolis Center
Wed 08:24:47 PM 44.4267 -95.1967 49° Northeast 436 502 21,700 -1,935 Descending Minneapolis Center
Wed 08:25:49 PM 44.4864 -95.0575 59° Northeast 426 490 19,700 -1,935 Descending Minneapolis Center
Wed 08:26:51 PM 44.5206 -94.9006 73° East 423 487 17,700 -1,951 Descending Minneapolis Center
Wed 08:27:52 PM 44.5553 -94.7522 72° East 409 471 15,700 -1,854 Descending Minneapolis Center
Wed 08:28:54 PM 44.5903 -94.6056 71° East 390 449 13,900 -1,597 Descending Minneapolis Center
Wed 08:29:56 PM 44.6217 -94.4700 72° East 367 422 12,400 -1,268 Descending Minneapolis Center
Wed 08:30:57 PM 44.6522 -94.3364 72° East 359 413 11,300 -634 Descending Minneapolis Center
Wed 08:31:59 PM 44.6819 -94.2047 72° East 355 409 11,100 -97 Descending Minneapolis Center
Wed 08:33:01 PM 44.7181 -94.0461 72° East 354 407 11,100  Level Minneapolis Center
Wed 08:34:03 PM 44.7467 -93.9153 73° East 351 404 11,100 -49 Level Minneapolis Center
Wed 08:35:04 PM 44.7764 -93.7842 72° East 351 404 11,000 -49 Descending Minneapolis Center
Wed 08:36:06 PM 44.8050 -93.6522 73° East 353 406 11,000 -97 Level Minneapolis Center
Wed 08:37:08 PM 44.8333 -93.5244 73° East 340 391 10,800 -435 Descending Minneapolis Center
Wed 08:38:10 PM 44.8581 -93.4147 72° East 298 343 10,100 -927 Descending Minneapolis Center
Wed 08:39:11 PM 44.8483 -93.3167 98° East 273 314 8,900 -1,512 Descending Minneapolis Center
Wed 08:40:13 PM 44.7669 -93.2922 168° South 258 297 7,000 -1,548 Descending Minneapolis Center
Wed 08:41:15 PM 44.7047 -93.2794 172° South 236 272 5,700 -1,500 Descending Minneapolis Center
Wed 08:42:17 PM 44.7128 -93.2253 78° East 184 212 3,900 -1,512 Descending Minneapolis Center
Wed 08:43:18 PM 44.7644 -93.2144 North 167 192 2,600 -878 Descending Minneapolis Center
Wed 08:44:20 PM 44.8022 -93.2206 353° North 141 162 2,100 -581 Descending Minneapolis Center
Wed 08:45:22 PM 44.8378 -93.2292 350° North 131 151 1,400 -677 Descending Minneapolis Center
Wed 08:47:00 PM 44.8667 -93.2167 90° East  Level FlightAware Approximate
Wed 08:54:00 PM 44.8820 -93.2218 90° East  Level Estimated

Login

Don't have an account? Register now (free) for customized features, flight alerts, and more!